Time;durP1;ratioP1;P1;durP2;ratioP2;P2;SDS_P1;SDS_P2;PMS_P1;PMS_P2;Temp;Humidity;BMP_temperature;BMP_pressure;BME280_temperature;BME280_humidity;BME280_pressure;Samples;Min_cycle;Max_cycle;Signal;HPM_P1;HPM_P2
2023/10/11 00:00:57;;;;;;;;;;;18.10;84.40;;;;;;4930416;29;19989;-73
2023/10/11 00:05:57;;;;;;;;;;;18.00;84.20;;;;;;4929494;29;19922;-73
2023/10/11 00:08:26;;;;;;;;;;;17.90;84.20;;;;;;4930398;29;20006;-72
2023/10/11 00:10:55;;;;;;;;;;;17.90;84.20;;;;;;4932251;29;19919;-73
2023/10/11 00:13:22;;;;;;;;;;;17.80;84.20;;;;;;4932601;29;20009;-73
2023/10/11 00:15:49;;;;;;;;;;;17.70;84.10;;;;;;4933882;29;19911;-73
2023/10/11 00:18:16;;;;;;;;;;;17.60;84.20;;;;;;4933891;29;20178;-73
2023/10/11 00:23:08;;;;;;;;;;;17.60;84.30;;;;;;4933856;29;19915;-73
2023/10/11 00:25:34;;;;;;;;;;;17.50;84.30;;;;;;4933859;29;19915;-73
2023/10/11 00:27:59;;;;;;;;;;;17.50;84.30;;;;;;4933716;29;20159;-73
2023/10/11 00:30:26;;;;;;;;;;;17.50;84.30;;;;;;4932364;29;19914;-73
2023/10/11 00:32:54;;;;;;;;;;;17.50;84.40;;;;;;4933704;29;19967;-73
2023/10/11 00:35:24;;;;;;;;;;;17.50;84.40;;;;;;4932377;29;19911;-73
2023/10/11 00:37:51;;;;;;;;;;;17.50;84.30;;;;;;4933440;29;19915;-73
2023/10/11 00:40:25;;;;;;;;;;;17.40;84.30;;;;;;4933502;29;19914;-73
2023/10/11 00:42:51;;;;;;;;;;;17.40;84.30;;;;;;4933482;29;20013;-73
2023/10/11 00:45:17;;;;;;;;;;;17.40;84.30;;;;;;4933498;29;20006;-73
2023/10/11 00:47:45;;;;;;;;;;;17.40;84.40;;;;;;4933463;29;20384;-73
2023/10/11 00:50:14;;;;;;;;;;;17.40;84.40;;;;;;4933409;29;19914;-73
2023/10/11 00:52:43;;;;;;;;;;;17.40;84.40;;;;;;4931883;29;19978;-73
2023/10/11 00:55:24;;;;;;;;;;;17.40;84.30;;;;;;4933183;29;20390;-73
2023/10/11 00:57:53;;;;;;;;;;;17.40;84.30;;;;;;4933038;29;20388;-72
2023/10/11 01:00:23;;;;;;;;;;;17.40;84.30;;;;;;4932002;29;19958;-73
2023/10/11 01:02:52;;;;;;;;;;;17.40;84.30;;;;;;4933082;29;19918;-73
2023/10/11 01:05:18;;;;;;;;;;;17.40;84.40;;;;;;4931821;29;20005;-73
2023/10/11 01:07:49;;;;;;;;;;;17.40;84.40;;;;;;4933044;29;20005;-73
2023/10/11 01:10:16;;;;;;;;;;;17.40;84.40;;;;;;4931907;29;19915;-73
2023/10/11 01:12:41;;;;;;;;;;;17.40;84.40;;;;;;4932988;29;20294;-81
2023/10/11 01:15:11;;;;;;;;;;;17.40;84.40;;;;;;4933142;29;19917;-81
2023/10/11 01:17:38;;;;;;;;;;;17.40;84.40;;;;;;4931932;29;19915;-81
2023/10/11 01:20:17;;;;;;;;;;;17.40;84.40;;;;;;4933703;29;19911;-81
2023/10/11 01:22:43;;;;;;;;;;;17.40;84.40;;;;;;4931447;29;19910;-81
2023/10/11 01:25:12;;;;;;;;;;;17.40;84.40;;;;;;4933390;29;20009;-81
2023/10/11 01:27:41;;;;;;;;;;;17.40;84.40;;;;;;4933255;29;19922;-81
2023/10/11 01:30:09;;;;;;;;;;;17.30;84.30;;;;;;4933664;29;20327;-81
2023/10/11 01:32:37;;;;;;;;;;;17.30;84.40;;;;;;4933616;29;19915;-81
2023/10/11 01:35:05;;;;;;;;;;;17.30;84.40;;;;;;4932878;29;19934;-81
2023/10/11 01:37:41;;;;;;;;;;;17.30;84.40;;;;;;4932806;29;20435;-81
2023/10/11 01:40:11;;;;;;;;;;;17.30;84.40;;;;;;4932819;29;19919;-81
2023/10/11 01:42:37;;;;;;;;;;;17.30;84.40;;;;;;4932430;29;19915;-83
2023/10/11 01:45:07;;;;;;;;;;;17.40;84.50;;;;;;4932408;29;20414;-83
2023/10/11 01:47:36;;;;;;;;;;;17.30;84.40;;;;;;4932498;29;20297;-83
2023/10/11 01:50:03;;;;;;;;;;;17.30;84.40;;;;;;4932508;29;19914;-83
2023/10/11 01:52:28;;;;;;;;;;;17.30;84.40;;;;;;4932676;29;19915;-83
2023/10/11 01:54:57;;;;;;;;;;;17.30;84.40;;;;;;4932586;29;19960;-82
2023/10/11 01:57:25;;;;;;;;;;;17.30;84.40;;;;;;4932026;29;19919;-82
2023/10/11 01:59:52;;;;;;;;;;;17.30;84.50;;;;;;4930899;29;20009;-82
2023/10/11 02:02:18;;;;;;;;;;;17.30;84.50;;;;;;4932151;29;19922;-83
2023/10/11 02:04:43;;;;;;;;;;;17.30;84.50;;;;;;4932301;29;19911;-83
2023/10/11 02:07:09;;;;;;;;;;;17.20;84.40;;;;;;4932058;29;19915;-82
2023/10/11 02:09:36;;;;;;;;;;;17.20;84.40;;;;;;4932170;29;20243;-83
2023/10/11 02:12:06;;;;;;;;;;;17.20;84.40;;;;;;4915051;29;20383;-82
2023/10/11 02:14:31;;;;;;;;;;;17.10;84.40;;;;;;4930631;29;20271;-83
2023/10/11 02:16:59;;;;;;;;;;;17.10;84.40;;;;;;4931919;29;19934;-83
2023/10/11 02:19:25;;;;;;;;;;;17.10;84.50;;;;;;4931699;29;19914;-82
2023/10/11 02:21:53;;;;;;;;;;;17.10;84.40;;;;;;4932155;29;19925;-83
2023/10/11 02:24:19;;;;;;;;;;;17.00;84.30;;;;;;4931663;29;19911;-82
2023/10/11 02:26:50;;;;;;;;;;;17.00;84.30;;;;;;4930582;29;19937;-82
2023/10/11 02:29:23;;;;;;;;;;;16.90;84.30;;;;;;4931928;29;19915;-82
2023/10/11 02:31:52;;;;;;;;;;;17.00;84.40;;;;;;4931630;29;19917;-83
2023/10/11 02:34:18;;;;;;;;;;;16.90;84.40;;;;;;4930813;29;20354;-83
2023/10/11 02:36:44;;;;;;;;;;;16.90;84.40;;;;;;4931590;29;20279;-82
2023/10/11 02:39:20;;;;;;;;;;;16.90;84.40;;;;;;4930209;29;19966;-82
2023/10/11 02:41:50;;;;;;;;;;;16.80;84.30;;;;;;4915557;29;20026;-82
2023/10/11 02:44:15;;;;;;;;;;;16.90;84.40;;;;;;4931504;29;19918;-82
2023/10/11 02:46:43;;;;;;;;;;;16.80;84.40;;;;;;4931496;29;19915;-82
2023/10/11 02:49:21;;;;;;;;;;;16.80;84.40;;;;;;4931418;29;19954;-83
2023/10/11 02:51:55;;;;;;;;;;;16.80;84.40;;;;;;4931273;29;19911;-82
2023/10/11 02:54:21;;;;;;;;;;;16.80;84.40;;;;;;4931917;29;19958;-82
2023/10/11 02:56:47;;;;;;;;;;;16.80;84.50;;;;;;4931361;29;19911;-83
2023/10/11 02:59:19;;;;;;;;;;;16.80;84.50;;;;;;4929854;29;20321;-82
2023/10/11 03:01:46;;;;;;;;;;;16.80;84.50;;;;;;4931585;29;19911;-82
2023/10/11 03:04:15;;;;;;;;;;;16.80;84.50;;;;;;4931118;29;20376;-82
2023/10/11 03:06:47;;;;;;;;;;;16.90;84.50;;;;;;4931302;29;19969;-83
2023/10/11 03:09:12;;;;;;;;;;;16.90;84.50;;;;;;4931398;29;19915;-83
2023/10/11 03:11:45;;;;;;;;;;;16.90;84.50;;;;;;4931322;29;19922;-83
2023/10/11 03:14:12;;;;;;;;;;;16.90;84.50;;;;;;4931076;29;20364;-82
2023/10/11 03:16:42;;;;;;;;;;;16.90;84.50;;;;;;4931490;29;19922;-83
2023/10/11 03:19:10;;;;;;;;;;;17.00;84.50;;;;;;4930966;29;19918;-83
2023/10/11 03:21:35;;;;;;;;;;;17.00;84.50;;;;;;4931003;29;19925;-83
2023/10/11 03:24:05;;;;;;;;;;;17.00;84.50;;;;;;4930982;29;19923;-82
2023/10/11 03:26:37;;;;;;;;;;;17.00;84.50;;;;;;4914432;29;19921;-83
2023/10/11 03:29:03;;;;;;;;;;;17.00;84.50;;;;;;4931150;29;20283;-82
2023/10/11 03:31:31;;;;;;;;;;;17.00;84.50;;;;;;4929751;29;19915;-83
2023/10/11 03:34:14;;;;;;;;;;;17.00;84.60;;;;;;4930960;29;20049;-82
2023/10/11 03:36:43;;;;;;;;;;;17.00;84.60;;;;;;4930945;29;19910;-83
2023/10/11 03:39:09;;;;;;;;;;;17.00;84.50;;;;;;4930875;29;19922;-82
2023/10/11 03:41:36;;;;;;;;;;;17.00;84.50;;;;;;4929358;29;19911;-82
2023/10/11 03:44:09;;;;;;;;;;;17.10;84.60;;;;;;4929444;29;20371;-82
2023/10/11 03:46:36;;;;;;;;;;;17.00;84.60;;;;;;4934042;29;19918;-83
2023/10/11 03:51:43;;;;;;;;;;;17.00;84.50;;;;;;4934688;29;19917;-83
2023/10/11 03:54:13;;;;;;;;;;;17.00;84.50;;;;;;4934460;29;19922;-83
2023/10/11 03:56:45;;;;;;;;;;;17.00;84.50;;;;;;4934413;29;19911;-82
2023/10/11 03:59:12;;;;;;;;;;;16.90;84.40;;;;;;4934102;29;19931;-82
2023/10/11 04:01:38;;;;;;;;;;;16.90;84.50;;;;;;4934658;29;20284;-82
2023/10/11 04:04:05;;;;;;;;;;;16.90;84.50;;;;;;4934971;29;19911;-82
2023/10/11 04:06:33;;;;;;;;;;;16.90;84.50;;;;;;4935374;29;20268;-82
2023/10/11 04:09:02;;;;;;;;;;;16.90;84.50;;;;;;4933562;29;19915;-82
2023/10/11 04:11:37;;;;;;;;;;;16.90;84.60;;;;;;4933529;29;19925;-82
2023/10/11 04:14:03;;;;;;;;;;;16.90;84.60;;;;;;4934768;29;19960;-83
2023/10/11 04:16:29;;;;;;;;;;;16.90;84.60;;;;;;4935308;29;19922;-82
2023/10/11 04:18:55;;;;;;;;;;;16.90;84.60;;;;;;4934597;29;19915;-82
2023/10/11 04:23:54;;;;;;;;;;;17.00;84.70;;;;;;4934202;29;19911;-81
2023/10/11 04:26:38;;;;;;;;;;;17.00;84.70;;;;;;4933959;29;19971;-82
2023/10/11 04:29:15;;;;;;;;;;;17.00;84.80;;;;;;4934077;29;20146;-82
2023/10/11 04:32:09;;;;;;;;;;;17.10;84.60;;;;;;4934183;29;19974;-83
2023/10/11 04:34:38;;;;;;;;;;;16.90;84.00;;;;;;4932970;29;20265;-81
2023/10/11 04:37:07;;;;;;;;;;;16.50;83.70;;;;;;4933732;29;19911;-82
2023/10/11 04:39:49;;;;;;;;;;;16.20;83.80;;;;;;4932241;29;19958;-82
2023/10/11 04:42:16;;;;;;;;;;;15.80;84.30;;;;;;4934064;29;19911;-81
2023/10/11 04:44:54;;;;;;;;;;;15.50;84.60;;;;;;4932205;29;19919;-81
2023/10/11 04:47:20;;;;;;;;;;;15.40;84.80;;;;;;4933390;29;19922;-81
2023/10/11 04:49:48;;;;;;;;;;;15.20;84.80;;;;;;4935390;29;19963;-83
2023/10/11 04:52:22;;;;;;;;;;;15.10;84.80;;;;;;4933819;29;19915;-80
2023/10/11 04:54:54;;;;;;;;;;;15.10;84.90;;;;;;4933240;29;19911;-81
2023/10/11 04:57:25;;;;;;;;;;;15.10;84.90;;;;;;4932104;29;19975;-81
2023/10/11 04:59:59;;;;;;;;;;;15.00;84.80;;;;;;4933130;29;20013;-80
2023/10/11 05:02:32;;;;;;;;;;;15.00;84.70;;;;;;4933172;29;19942;-80
2023/10/11 05:05:01;;;;;;;;;;;15.00;84.70;;;;;;4933167;29;19926;-80
2023/10/11 05:07:28;;;;;;;;;;;15.00;84.70;;;;;;4933079;29;19946;-81
2023/10/11 05:09:59;;;;;;;;;;;15.10;84.70;;;;;;4933475;29;19915;-82
2023/10/11 05:12:25;;;;;;;;;;;15.10;84.60;;;;;;4933053;29;20001;-82
2023/10/11 05:14:56;;;;;;;;;;;15.10;84.50;;;;;;4931929;29;20354;-82
2023/10/11 05:22:35;;;;;;;;;;;15.20;84.40;;;;;;4933023;29;19917;-82
2023/10/11 05:30:16;;;;;;;;;;;15.20;84.20;;;;;;4932455;29;20032;-81
2023/10/11 05:52:05;;;;;;;;;;;15.20;84.20;;;;;;4932680;29;20552;-81
2023/10/11 05:54:34;;;;;;;;;;;15.10;84.30;;;;;;4930993;29;20337;-81
2023/10/11 05:57:03;;;;;;;;;;;15.10;84.30;;;;;;4932277;29;20356;-82
2023/10/11 05:59:32;;;;;;;;;;;15.00;84.40;;;;;;4932054;29;20391;-81
2023/10/11 06:01:59;;;;;;;;;;;14.90;84.50;;;;;;4930613;29;19934;-81
2023/10/11 06:04:24;;;;;;;;;;;14.70;84.50;;;;;;4930717;29;19957;-82
2023/10/11 06:06:57;;;;;;;;;;;14.50;84.60;;;;;;4930636;29;19962;-82
2023/10/11 06:09:26;;;;;;;;;;;14.30;84.80;;;;;;4930435;29;20001;-82
2023/10/11 06:11:52;;;;;;;;;;;14.10;85.00;;;;;;4931845;29;20348;-81
2023/10/11 06:14:18;;;;;;;;;;;14.00;85.20;;;;;;4930701;29;20352;-81
2023/10/11 06:17:06;;;;;;;;;;;13.90;85.30;;;;;;4931995;29;20382;-81
2023/10/11 06:19:31;;;;;;;;;;;13.80;85.40;;;;;;4931544;29;19919;-80
2023/10/11 06:21:57;;;;;;;;;;;13.90;85.50;;;;;;4931893;29;20005;-81
2023/10/11 06:24:23;;;;;;;;;;;13.90;85.50;;;;;;4931761;29;19911;-81
2023/10/11 06:29:22;;;;;;;;;;;14.00;85.30;;;;;;4931815;29;19911;-80
2023/10/11 06:31:53;;;;;;;;;;;14.10;85.20;;;;;;4931460;29;19910;-81
2023/10/11 06:34:24;;;;;;;;;;;14.00;85.10;;;;;;4930442;29;20408;-80
2023/10/11 06:36:50;;;;;;;;;;;14.00;85.20;;;;;;4931467;29;19911;-77
2023/10/11 06:40:08;;;;;;;;;;;14.20;85.20;;;;;;4931295;29;19919;-81
2023/10/11 06:44:51;;;;;;;;;;;14.40;84.90;;;;;;4931516;29;19915;-81
2023/10/11 06:47:18;;;;;;;;;;;14.40;84.90;;;;;;4931222;29;20275;-66
2023/10/11 06:49:47;;;;;;;;;;;14.40;84.80;;;;;;4931643;29;19915;-81
2023/10/11 06:52:17;;;;;;;;;;;14.40;84.60;;;;;;4929933;29;20058;-81
2023/10/11 06:54:47;;;;;;;;;;;14.30;84.50;;;;;;4931337;29;20386;-81
2023/10/11 06:57:17;;;;;;;;;;;14.30;84.70;;;;;;4931368;29;20378;-81
2023/10/11 06:59:43;;;;;;;;;;;14.20;84.80;;;;;;4930784;29;19918;-82
2023/10/11 07:02:17;;;;;;;;;;;14.20;84.70;;;;;;4930943;29;19910;-82
2023/10/11 07:04:52;;;;;;;;;;;14.10;84.60;;;;;;4930740;29;20010;-80
2023/10/11 07:07:18;;;;;;;;;;;14.00;84.70;;;;;;4931007;29;19911;-81
2023/10/11 07:09:56;;;;;;;;;;;13.90;84.90;;;;;;4931706;29;19912;-73
2023/10/11 07:12:28;;;;;;;;;;;13.90;85.00;;;;;;4915022;29;19926;-75
2023/10/11 07:14:57;;;;;;;;;;;13.90;85.00;;;;;;4928621;29;19926;-75
2023/10/11 07:17:28;;;;;;;;;;;13.90;85.40;;;;;;4930219;29;19918;-74
2023/10/11 07:19:57;;;;;;;;;;;13.90;85.10;;;;;;4929525;29;19930;-75
2023/10/11 07:22:26;;;;;;;;;;;13.90;85.10;;;;;;4930232;29;20426;-75
2023/10/11 07:25:18;;;;;;;;;;;13.90;84.90;;;;;;4929056;29;19915;-75
2023/10/11 07:27:43;;;;;;;;;;;14.00;84.80;;;;;;4929806;29;19922;-72
2023/10/11 07:30:16;;;;;;;;;;;14.10;84.70;;;;;;4929887;29;19914;-74
2023/10/11 07:32:42;;;;;;;;;;;14.10;84.60;;;;;;4913741;29;19918;-73
2023/10/11 07:35:19;;;;;;;;;;;14.10;84.60;;;;;;4930271;29;19915;-74
2023/10/11 07:37:44;;;;;;;;;;;14.10;84.50;;;;;;4930150;29;19963;-75
2023/10/11 07:40:13;;;;;;;;;;;14.00;84.50;;;;;;4930841;29;19927;-73
2023/10/11 07:42:39;;;;;;;;;;;13.90;84.60;;;;;;4929748;29;20005;-74
2023/10/11 07:45:12;;;;;;;;;;;13.70;84.70;;;;;;4930096;29;20356;-62
2023/10/11 07:47:48;;;;;;;;;;;13.70;84.70;;;;;;4929859;29;20033;-74
2023/10/11 07:50:22;;;;;;;;;;;13.80;84.80;;;;;;4929974;29;19986;-74
2023/10/11 07:52:48;;;;;;;;;;;13.80;84.70;;;;;;4914720;29;19915;-82
2023/10/11 07:55:13;;;;;;;;;;;13.90;84.70;;;;;;4929345;29;20386;-82
2023/10/11 07:57:44;;;;;;;;;;;13.90;84.60;;;;;;4932249;29;19954;-81
2023/10/11 08:00:17;;;;;;;;;;;14.00;84.60;;;;;;4932372;29;20379;-80
2023/10/11 08:02:43;;;;;;;;;;;14.10;84.50;;;;;;4930422;29;20218;-80
2023/10/11 08:05:12;;;;;;;;;;;14.10;84.50;;;;;;4931147;29;19915;-82
2023/10/11 08:07:40;;;;;;;;;;;14.10;84.50;;;;;;4930682;29;19914;-82
2023/10/11 08:12:51;;;;;;;;;;;14.30;84.40;;;;;;4930456;29;19941;-73
2023/10/11 08:15:21;;;;;;;;;;;14.30;84.40;;;;;;4930272;29;19917;-73
2023/10/11 08:17:47;;;;;;;;;;;14.30;84.40;;;;;;4929337;29;20251;-75
2023/10/11 08:20:16;;;;;;;;;;;14.40;84.40;;;;;;4929466;29;20017;-74
2023/10/11 08:22:43;;;;;;;;;;;14.50;84.30;;;;;;4929590;29;19941;-74
2023/10/11 08:25:12;;;;;;;;;;;14.50;84.10;;;;;;4930255;29;19958;-74
2023/10/11 08:27:38;;;;;;;;;;;14.60;84.00;;;;;;4929260;29;19915;-73
2023/10/11 08:30:26;;;;;;;;;;;14.60;84.10;;;;;;4930849;29;19918;-74
2023/10/11 08:32:51;;;;;;;;;;;14.60;84.20;;;;;;4933364;29;19929;-71
2023/10/11 08:35:19;;;;;;;;;;;14.60;84.30;;;;;;4934128;29;20007;-71
2023/10/11 08:37:45;;;;;;;;;;;14.60;84.40;;;;;;4933999;29;20002;-72
2023/10/11 08:40:22;;;;;;;;;;;14.70;84.40;;;;;;4933378;29;19982;-76
2023/10/11 08:42:48;;;;;;;;;;;14.70;84.20;;;;;;4932846;29;19972;-72
2023/10/11 08:45:20;;;;;;;;;;;14.70;84.20;;;;;;4933311;29;19925;-72
2023/10/11 08:47:46;;;;;;;;;;;14.70;84.70;;;;;;4934165;29;19911;-72
2023/10/11 08:50:17;;;;;;;;;;;14.60;84.10;;;;;;4931930;29;19933;-72
2023/10/11 08:52:43;;;;;;;;;;;14.60;84.30;;;;;;4931418;29;20404;-72
2023/10/11 08:55:12;;;;;;;;;;;14.50;84.30;;;;;;4933500;29;19946;-72
2023/10/11 08:57:38;;;;;;;;;;;14.40;84.20;;;;;;4931383;29;19973;-72
2023/10/11 09:00:17;;;;;;;;;;;14.40;84.30;;;;;;4932889;29;20301;-72
2023/10/11 09:02:48;;;;;;;;;;;14.20;84.30;;;;;;4952574;28;19954;-68
2023/10/11 09:05:29;;;;;;;;;;;14.20;84.50;;;;;;4932950;29;19966;-72
2023/10/11 09:07:55;;;;;;;;;;;14.10;84.60;;;;;;4931079;29;19969;-72
2023/10/11 09:10:25;;;;;;;;;;;14.00;84.80;;;;;;4933306;29;20368;-73
2023/10/11 09:12:58;;;;;;;;;;;14.00;84.80;;;;;;4932738;29;20009;-71
2023/10/11 09:15:34;;;;;;;;;;;14.00;84.80;;;;;;4932624;29;19911;-73
2023/10/11 09:18:09;;;;;;;;;;;14.00;84.80;;;;;;4930796;29;20405;-73
2023/10/11 09:20:40;;;;;;;;;;;14.00;84.70;;;;;;4929923;29;19915;-72
2023/10/11 09:23:06;;;;;;;;;;;14.10;84.80;;;;;;4932224;29;19915;-73
2023/10/11 09:25:41;;;;;;;;;;;14.10;84.60;;;;;;4954741;28;19922;-72
2023/10/11 09:28:15;;;;;;;;;;;14.10;84.60;;;;;;4932004;29;19970;-73
2023/10/11 09:30:44;;;;;;;;;;;14.10;84.50;;;;;;4930352;29;20295;-73
2023/10/11 09:33:16;;;;;;;;;;;14.10;84.80;;;;;;4932869;29;20348;-71
2023/10/11 09:35:48;;;;;;;;;;;14.10;84.20;;;;;;4932615;29;20315;-70
2023/10/11 09:38:19;;;;;;;;;;;14.10;84.20;;;;;;4925195;29;19942;-70
2023/10/11 09:40:44;;;;;;;;;;;14.10;84.00;;;;;;4913878;29;20444;-71
2023/10/11 09:43:13;;;;;;;;;;;14.00;83.80;;;;;;4913312;29;19931;-71
2023/10/11 09:45:43;;;;;;;;;;;14.00;83.80;;;;;;4913919;29;19915;-71
2023/10/11 09:48:12;;;;;;;;;;;14.00;83.90;;;;;;4921598;29;19915;-71
2023/10/11 09:50:41;;;;;;;;;;;14.00;83.90;;;;;;4929808;29;19915;-71
2023/10/11 09:53:10;;;;;;;;;;;14.00;84.00;;;;;;4929369;29;19933;-71
2023/10/11 09:55:38;;;;;;;;;;;14.00;84.00;;;;;;4931072;29;19930;-71
2023/10/11 09:58:42;;;;;;;;;;;14.10;84.00;;;;;;4932252;29;19923;-72
2023/10/11 10:01:18;;;;;;;;;;;14.10;83.90;;;;;;4872320;29;19975;-72
2023/10/11 10:03:53;;;;;;;;;;;14.10;84.50;;;;;;4925013;29;19919;-72
2023/10/11 10:06:18;;;;;;;;;;;14.10;83.90;;;;;;4932667;29;20009;-73
2023/10/11 10:08:47;;;;;;;;;;;14.00;84.00;;;;;;4932099;29;20002;-72
2023/10/11 10:11:13;;;;;;;;;;;14.00;84.10;;;;;;4932665;29;19926;-73
2023/10/11 10:13:58;;;;;;;;;;;14.00;84.10;;;;;;4932319;29;19919;-73
2023/10/11 10:16:42;;;;;;;;;;;14.00;84.10;;;;;;4930741;29;20015;-72
2023/10/11 10:19:23;;;;;;;;;;;14.00;84.00;;;;;;4932487;29;19927;-72
2023/10/11 10:22:08;;;;;;;;;;;13.90;84.20;;;;;;4931688;29;19921;-73
2023/10/11 10:24:33;;;;;;;;;;;13.90;84.30;;;;;;4930500;29;19918;-74
2023/10/11 10:27:19;;;;;;;;;;;13.80;84.40;;;;;;4930810;29;19915;-71
2023/10/11 10:29:55;;;;;;;;;;;13.80;84.50;;;;;;4930709;29;20290;-71
2023/10/11 10:32:21;;;;;;;;;;;13.80;84.70;;;;;;4930589;29;19952;-72
2023/10/11 10:34:46;;;;;;;;;;;13.80;84.60;;;;;;4931384;29;20013;-70
2023/10/11 10:37:34;;;;;;;;;;;13.90;84.60;;;;;;4929680;29;19921;-71
2023/10/11 10:40:37;;;;;;;;;;;13.90;84.50;;;;;;4931928;29;19922;-71
2023/10/11 10:43:08;;;;;;;;;;;14.00;84.40;;;;;;4931918;29;20389;-71
2023/10/11 10:45:35;;;;;;;;;;;13.90;84.50;;;;;;4931494;29;19919;-71
2023/10/11 10:48:18;;;;;;;;;;;13.90;84.60;;;;;;4931545;29;19914;-71
2023/10/11 10:50:51;;;;;;;;;;;13.90;84.60;;;;;;4931753;29;20013;-71
2023/10/11 10:53:17;;;;;;;;;;;14.00;84.60;;;;;;4931416;29;19922;-74
2023/10/11 10:55:43;;;;;;;;;;;14.00;84.70;;;;;;4930443;29;19942;-74
2023/10/11 10:58:15;;;;;;;;;;;14.00;84.70;;;;;;4931289;29;19997;-73
2023/10/11 11:00:43;;;;;;;;;;;14.00;84.80;;;;;;4931382;29;19915;-73
2023/10/11 11:03:22;;;;;;;;;;;14.00;84.90;;;;;;4929863;29;20304;-74
2023/10/11 11:05:55;;;;;;;;;;;14.00;84.90;;;;;;4930895;29;20378;-74
2023/10/11 11:08:24;;;;;;;;;;;14.00;85.10;;;;;;4952259;28;19914;-74
2023/10/11 11:11:18;;;;;;;;;;;14.10;85.00;;;;;;4955242;28;19915;-75
2023/10/11 11:13:48;;;;;;;;;;;14.20;84.90;;;;;;4928790;29;19918;-72
2023/10/11 11:16:17;;;;;;;;;;;14.30;84.60;;;;;;4928888;29;19922;-72
2023/10/11 11:18:43;;;;;;;;;;;14.30;84.40;;;;;;4928845;29;19918;-73
2023/10/11 11:21:44;;;;;;;;;;;14.40;84.40;;;;;;4930218;29;19914;-77
2023/10/11 11:24:17;;;;;;;;;;;14.40;84.50;;;;;;4929961;29;20368;-77
2023/10/11 11:26:43;;;;;;;;;;;14.50;84.30;;;;;;4931039;29;19919;-76
2023/10/11 11:29:16;;;;;;;;;;;14.40;84.30;;;;;;4931136;29;19914;-77
2023/10/11 11:31:52;;;;;;;;;;;14.40;84.40;;;;;;4930403;29;19918;-76
2023/10/11 11:34:37;;;;;;;;;;;14.40;84.40;;;;;;4931560;29;19998;-76
2023/10/11 11:37:07;;;;;;;;;;;14.40;84.40;;;;;;4916637;29;19921;-76
2023/10/11 11:39:42;;;;;;;;;;;14.50;84.60;;;;;;4931392;29;19922;-78
2023/10/11 11:42:19;;;;;;;;;;;14.50;84.40;;;;;;4930532;29;19915;-76
2023/10/11 11:44:47;;;;;;;;;;;14.50;84.30;;;;;;4929951;29;19910;-76
2023/10/11 11:47:21;;;;;;;;;;;14.50;84.30;;;;;;4929186;29;19963;-74
2023/10/11 11:49:47;;;;;;;;;;;14.50;84.30;;;;;;4928673;29;20398;-74
2023/10/11 11:52:16;;;;;;;;;;;14.40;84.30;;;;;;4927902;29;19915;-75
2023/10/11 11:54:43;;;;;;;;;;;14.40;84.40;;;;;;4918770;29;19918;-74
2023/10/11 11:57:09;;;;;;;;;;;14.30;84.50;;;;;;4927829;29;19910;-74
2023/10/11 11:59:34;;;;;;;;;;;14.20;84.50;;;;;;4929814;29;20590;-74
2023/10/11 12:02:00;;;;;;;;;;;14.20;84.70;;;;;;4930194;29;20091;-76
2023/10/11 12:04:30;;;;;;;;;;;14.20;84.70;;;;;;4930606;29;19919;-72
2023/10/11 12:06:57;;;;;;;;;;;14.20;84.60;;;;;;4932807;29;20014;-72
2023/10/11 12:09:22;;;;;;;;;;;14.20;84.60;;;;;;4936062;29;19915;-75
2023/10/11 12:11:53;;;;;;;;;;;14.20;84.60;;;;;;4935054;29;19970;-76
2023/10/11 12:14:22;;;;;;;;;;;14.20;84.80;;;;;;4935234;29;19921;-76
2023/10/11 12:16:48;;;;;;;;;;;14.20;84.70;;;;;;4934960;29;20435;-75
2023/10/11 12:19:16;;;;;;;;;;;14.20;84.70;;;;;;4933574;29;19923;-75
2023/10/11 12:21:42;;;;;;;;;;;14.30;84.70;;;;;;4933849;29;19926;-76
2023/10/11 12:24:11;;;;;;;;;;;14.30;84.60;;;;;;4935023;29;19916;-75
2023/10/11 12:26:40;;;;;;;;;;;14.40;84.60;;;;;;4928814;29;20268;-75
2023/10/11 12:29:09;;;;;;;;;;;14.40;84.50;;;;;;4916102;29;19923;-74
2023/10/11 12:31:38;;;;;;;;;;;14.30;84.90;;;;;;4916029;29;19915;-76
2023/10/11 12:34:09;;;;;;;;;;;14.30;84.50;;;;;;4914484;29;19915;-75
2023/10/11 12:36:41;;;;;;;;;;;14.20;84.60;;;;;;4916262;29;19911;-75
2023/10/11 12:39:08;;;;;;;;;;;14.10;84.70;;;;;;4915552;29;19922;-75
2023/10/11 12:41:39;;;;;;;;;;;14.10;84.80;;;;;;4929388;29;19973;-75
2023/10/11 12:44:07;;;;;;;;;;;14.10;84.70;;;;;;4933333;29;19914;-76
2023/10/11 12:46:33;;;;;;;;;;;14.10;84.60;;;;;;4943698;29;19921;-75
2023/10/11 12:49:00;;;;;;;;;;;14.00;84.50;;;;;;4933187;29;19911;-76
2023/10/11 12:51:25;;;;;;;;;;;14.00;84.70;;;;;;4933333;29;19910;-76
2023/10/11 12:53:57;;;;;;;;;;;13.90;84.90;;;;;;4934935;29;19927;-76
2023/10/11 12:56:26;;;;;;;;;;;14.00;84.90;;;;;;4934853;29;20271;-76
2023/10/11 12:58:53;;;;;;;;;;;14.00;84.80;;;;;;4934613;29;19959;-74
2023/10/11 13:01:40;;;;;;;;;;;14.00;84.40;;;;;;4934297;29;19919;-76
2023/10/11 13:04:09;;;;;;;;;;;14.00;84.40;;;;;;4920003;29;20013;-76
2023/10/11 13:06:37;;;;;;;;;;;14.00;84.40;;;;;;4934442;29;19914;-75
2023/10/11 13:09:15;;;;;;;;;;;14.00;84.40;;;;;;4935055;29;19951;-74
2023/10/11 13:11:44;;;;;;;;;;;14.00;84.40;;;;;;4933575;29;19925;-75
2023/10/11 13:14:11;;;;;;;;;;;14.00;84.30;;;;;;4932493;29;20256;-74
2023/10/11 13:16:38;;;;;;;;;;;14.00;84.20;;;;;;4933352;29;20375;-74
2023/10/11 13:19:05;;;;;;;;;;;14.00;84.20;;;;;;4915438;29;19954;-74
2023/10/11 13:21:33;;;;;;;;;;;14.00;84.20;;;;;;4931939;29;19931;-74
2023/10/11 13:23:59;;;;;;;;;;;14.00;84.30;;;;;;4933047;29;19930;-74
2023/10/11 13:26:25;;;;;;;;;;;14.00;84.30;;;;;;4933006;29;20315;-74
2023/10/11 13:28:53;;;;;;;;;;;13.90;84.40;;;;;;4933473;29;19923;-75
2023/10/11 13:31:18;;;;;;;;;;;14.00;84.50;;;;;;4932750;29;19922;-72
2023/10/11 13:33:44;;;;;;;;;;;14.00;85.00;;;;;;4932507;29;20392;-72
2023/10/11 13:36:12;;;;;;;;;;;14.10;84.60;;;;;;4932787;29;19958;-72
2023/10/11 13:38:41;;;;;;;;;;;14.20;84.60;;;;;;4932547;29;20352;-72
2023/10/11 13:41:11;;;;;;;;;;;14.20;84.50;;;;;;4932102;29;20371;-72
2023/10/11 13:43:38;;;;;;;;;;;14.20;84.50;;;;;;4932793;29;19921;-74
2023/10/11 13:46:06;;;;;;;;;;;14.30;84.60;;;;;;4931125;29;20005;-72
2023/10/11 13:48:39;;;;;;;;;;;14.30;84.60;;;;;;4930183;29;19914;-72
2023/10/11 13:51:16;;;;;;;;;;;14.30;84.40;;;;;;4932495;29;20522;-71
2023/10/11 13:53:42;;;;;;;;;;;14.40;84.50;;;;;;4932794;29;20332;-71
2023/10/11 13:56:20;;;;;;;;;;;14.40;84.60;;;;;;4932295;29;20006;-73
2023/10/11 13:58:47;;;;;;;;;;;14.40;84.60;;;;;;4930964;29;19927;-73
2023/10/11 14:04:04;;;;;;;;;;;14.50;84.50;;;;;;4945401;28;20001;-72
2023/10/11 14:06:42;;;;;;;;;;;14.60;84.40;;;;;;4932475;29;19915;-73
2023/10/11 14:09:17;;;;;;;;;;;14.70;84.30;;;;;;4932393;29;19914;-74
2023/10/11 14:11:46;;;;;;;;;;;14.70;84.30;;;;;;4932638;29;20473;-76
2023/10/11 14:14:13;;;;;;;;;;;14.70;84.20;;;;;;4930252;29;20005;-73
2023/10/11 14:16:41;;;;;;;;;;;14.70;84.20;;;;;;4932162;29;19915;-72
2023/10/11 14:19:08;;;;;;;;;;;14.70;84.40;;;;;;4932423;29;19919;-72
2023/10/11 14:21:36;;;;;;;;;;;14.70;84.40;;;;;;4930947;29;19922;-72
2023/10/11 14:24:03;;;;;;;;;;;14.70;84.30;;;;;;4932279;29;19967;-73
2023/10/11 14:26:33;;;;;;;;;;;14.80;84.30;;;;;;4932292;29;19917;-74
2023/10/11 14:28:59;;;;;;;;;;;14.80;84.30;;;;;;4931773;29;19911;-74
2023/10/11 14:31:25;;;;;;;;;;;14.90;84.50;;;;;;4931731;29;19911;-74
2023/10/11 14:33:52;;;;;;;;;;;14.90;84.40;;;;;;4930867;29;19918;-74
2023/10/11 14:36:23;;;;;;;;;;;14.90;84.50;;;;;;4931728;29;20295;-74
2023/10/11 14:38:51;;;;;;;;;;;14.90;84.50;;;;;;4931679;29;20490;-72
2023/10/11 14:41:21;;;;;;;;;;;15.00;84.50;;;;;;4930851;29;19920;-72
2023/10/11 14:43:48;;;;;;;;;;;15.00;84.40;;;;;;4931764;29;19949;-73
2023/10/11 14:46:14;;;;;;;;;;;15.00;84.40;;;;;;4923059;29;19930;-73
2023/10/11 14:48:39;;;;;;;;;;;14.90;84.60;;;;;;4923268;29;19919;-72
2023/10/11 14:51:06;;;;;;;;;;;14.90;84.70;;;;;;4931761;29;20542;-72
2023/10/11 14:53:33;;;;;;;;;;;15.00;84.80;;;;;;4930435;29;20590;-72
2023/10/11 14:56:09;;;;;;;;;;;15.00;84.80;;;;;;4930159;29;20517;-73
2023/10/11 14:58:35;;;;;;;;;;;15.10;84.80;;;;;;4929641;29;19931;-72
2023/10/11 15:01:07;;;;;;;;;;;15.10;84.70;;;;;;4931490;29;19918;-72
2023/10/11 15:03:35;;;;;;;;;;;15.20;84.70;;;;;;4931064;29;19932;-72
2023/10/11 15:06:11;;;;;;;;;;;15.20;84.60;;;;;;4931282;29;19982;-71
2023/10/11 15:08:37;;;;;;;;;;;15.10;84.70;;;;;;4931643;29;20371;-70
2023/10/11 15:11:04;;;;;;;;;;;15.10;84.80;;;;;;4930207;29;19968;-71
2023/10/11 15:13:32;;;;;;;;;;;15.10;84.90;;;;;;4931429;29;19915;-72
2023/10/11 15:15:57;;;;;;;;;;;15.20;85.00;;;;;;4931009;29;20366;-72
2023/10/11 15:18:23;;;;;;;;;;;15.20;84.90;;;;;;4929334;29;19919;-62
2023/10/11 15:20:48;;;;;;;;;;;15.20;84.80;;;;;;4930215;29;20394;-72
2023/10/11 15:23:14;;;;;;;;;;;15.20;84.90;;;;;;4930602;29;19915;-71